Ferrol, Spain
Current Conditions -  °F | °C
As of 6:00 PM on Saturday 20 Dec 2014 (Local Time) from LECO Reporting Station
Light Fog Light Fog  
Wind Chill: 57°   Ceiling: 400
Heat Index: 57°   Visibility: 0.37mi
Dew Point: 55°   Wind: 1mph
Humidity: 94%   Direction: NA
Pressure: 30.56"   Gusts: NA
Location:  43.48°N, 8.24°W
Report Text: LECO 201700Z VRB01KT 0600 R21/P2000 R03/P2000 BCFG OVC00414/13 Q1035 TEMPO 0400 BCFG
Loading
Personal Weather Stations






























Interactive Weather Map New forecast layout! Learn more

10-Day Weather Forecast

Advertisements
Track Severe Weather on mobile